Time;durP1;ratioP1;P1;durP2;ratioP2;P2;SDS_P1;SDS_P2;PMS_P1;PMS_P2;Temp;Humidity;BMP_temperature;BMP_pressure;BME280_temperature;BME280_humidity;BME280_pressure;Samples;Min_cycle;Max_cycle;Signal;HPM_P1;HPM_P2
2021/12/20 00:01:27;;;;;;;1.45;1.17;;;;;;;5.60;59.42;99911.50;6158456;23;20016;-81
2021/12/20 00:03:53;;;;;;;1.88;1.40;;;;;;;5.55;59.67;99924.91;6153543;23;20021;-82
2021/12/20 00:06:18;;;;;;;1.83;1.48;;;;;;;5.38;60.14;99904.59;6155531;23;20009;-81
2021/12/20 00:08:44;;;;;;;2.13;1.50;;;;;;;5.32;60.70;99922.72;6155580;23;20016;-81
2021/12/20 00:11:09;;;;;;;1.90;1.45;;;;;;;5.18;60.60;99909.06;6153746;23;20040;-81
2021/12/20 00:13:35;;;;;;;1.98;1.45;;;;;;;5.20;60.90;99931.47;6155655;23;20013;-82
2021/12/20 00:16:01;;;;;;;2.40;1.58;;;;;;;5.13;61.33;99937.78;6155220;23;20024;-82
2021/12/20 00:18:26;;;;;;;3.25;1.80;;;;;;;5.02;61.64;99939.81;6155368;23;20032;-82
2021/12/20 00:20:52;;;;;;;3.03;1.65;;;;;;;5.04;61.49;99939.41;6155492;23;20060;-82
2021/12/20 00:23:17;;;;;;;2.58;1.65;;;;;;;4.99;61.38;99928.84;6153716;23;20016;-82
2021/12/20 00:25:48;;;;;;;2.95;2.00;;;;;;;4.96;61.46;99915.91;6155246;23;20016;-82
2021/12/20 00:28:15;;;;;;;2.78;1.77;;;;;;;4.93;62.10;99934.00;6155276;23;20016;-82
2021/12/20 00:30:40;;;;;;;2.90;1.90;;;;;;;4.81;61.99;99926.22;6155836;23;20016;-82
2021/12/20 00:33:06;;;;;;;3.42;2.28;;;;;;;4.70;62.86;99934.47;6153571;23;20444;-82
2021/12/20 00:35:31;;;;;;;2.47;1.92;;;;;;;4.52;63.54;99931.03;6155537;23;20017;-82
2021/12/20 00:40:41;;;;;;;4.53;2.30;;;;;;;4.29;64.48;99927.97;6153861;23;20024;-82
2021/12/20 00:43:06;;;;;;;2.70;1.90;;;;;;;4.14;64.95;99937.44;6153187;23;20013;-82
2021/12/20 00:45:34;;;;;;;3.35;1.95;;;;;;;4.08;65.84;99930.78;6152974;23;20010;-82
2021/12/20 00:48:00;;;;;;;2.58;1.80;;;;;;;3.96;65.96;99931.22;6152848;23;20068;-82
2021/12/20 00:50:26;;;;;;;2.70;1.98;;;;;;;3.82;66.65;99947.69;6152056;23;20376;-82
2021/12/20 00:52:51;;;;;;;3.50;2.33;;;;;;;3.77;66.47;99943.38;6151450;23;20033;-82
2021/12/20 00:55:18;;;;;;;3.25;2.15;;;;;;;3.68;66.91;99948.50;6152779;23;20463;-82
2021/12/20 00:57:45;;;;;;;3.10;2.00;;;;;;;3.63;67.06;99949.66;6152369;23;20038;-81
2021/12/20 01:00:13;;;;;;;3.70;2.30;;;;;;;3.64;67.02;99959.44;6151720;23;20028;-81
2021/12/20 01:02:39;;;;;;;3.30;2.10;;;;;;;3.60;66.83;99949.66;6158854;23;20074;-81
2021/12/20 01:05:05;;;;;;;3.72;2.30;;;;;;;3.68;66.75;99959.47;6157773;23;20447;-81
2021/12/20 01:07:30;;;;;;;3.45;2.40;;;;;;;3.70;66.85;99957.88;6183319;23;20013;-81
2021/12/20 01:09:59;;;;;;;3.60;2.10;;;;;;;3.61;67.22;99954.75;6183226;23;20522;-81
2021/12/20 01:12:29;;;;;;;3.75;2.10;;;;;;;3.57;67.65;99953.97;6183648;23;20009;-81
2021/12/20 01:14:59;;;;;;;3.30;2.10;;;;;;;3.35;67.96;99943.38;6183199;23;20546;-81
2021/12/20 01:17:25;;;;;;;4.63;2.72;;;;;;;3.32;68.33;99958.63;6158045;23;20036;-81
2021/12/20 01:19:50;;;;;;;3.42;2.33;;;;;;;3.25;68.67;99950.41;6132387;23;20092;-82
2021/12/20 01:22:16;;;;;;;4.47;2.40;;;;;;;3.25;68.75;99950.41;6157295;23;20005;-81
2021/12/20 01:24:42;;;;;;;4.10;2.40;;;;;;;3.20;68.86;99959.00;6157042;23;20019;-81
2021/12/20 01:27:07;;;;;;;3.70;2.55;;;;;;;3.18;69.10;99951.19;6156871;23;20392;-81
2021/12/20 01:29:33;;;;;;;4.15;2.40;;;;;;;3.16;69.40;99950.00;6157219;23;20005;-81
2021/12/20 01:31:58;;;;;;;4.10;2.80;;;;;;;3.13;69.49;99951.56;6156864;23;20017;-81
2021/12/20 01:34:25;;;;;;;4.32;2.50;;;;;;;3.16;69.77;99961.75;6181620;23;20009;-81
2021/12/20 01:36:50;;;;;;;3.55;2.47;;;;;;;3.15;70.08;99964.91;6182870;23;20021;-81
2021/12/20 01:39:16;;;;;;;3.30;2.28;;;;;;;3.13;69.96;99961.75;6132281;23;20011;-81
2021/12/20 01:41:43;;;;;;;4.00;2.60;;;;;;;3.11;70.25;99964.09;6182787;23;20013;-81
2021/12/20 01:44:09;;;;;;;4.32;2.63;;;;;;;3.09;70.24;99967.22;6156713;23;20092;-82
2021/12/20 01:46:35;;;;;;;3.95;2.45;;;;;;;3.07;70.85;99961.34;6183029;23;20108;-81
2021/12/20 01:49:03;;;;;;;4.63;2.50;;;;;;;3.07;70.77;99963.31;6182654;23;20399;-81
2021/12/20 01:54:04;;;;;;;3.83;2.60;;;;;;;3.12;70.82;99960.16;6156171;23;20017;-82
2021/12/20 01:56:32;;;;;;;4.30;2.70;;;;;;;3.11;70.92;99950.41;6183346;23;20075;-82
2021/12/20 01:59:05;;;;;;;8.18;4.80;;;;;;;3.19;70.86;99954.72;6182471;23;20080;-82
2021/12/20 02:01:31;;;;;;;7.63;4.40;;;;;;;3.25;71.00;99953.16;6131669;23;20017;-81
2021/12/20 02:04:02;;;;;;;9.90;4.40;;;;;;;3.20;70.97;99950.78;6182174;23;20494;-82
2021/12/20 02:08:57;;;;;;;11.82;6.63;;;;;;;3.26;70.60;99949.25;6182062;23;20017;-81
2021/12/20 02:11:24;;;;;;;10.35;6.25;;;;;;;3.33;70.68;99953.94;6183006;23;20347;-81
2021/12/20 02:13:49;;;;;;;11.15;6.60;;;;;;;3.32;70.78;99961.38;6182747;23;20087;-81
2021/12/20 02:16:15;;;;;;;8.80;5.55;;;;;;;3.34;70.45;99961.78;6156620;23;20036;-81
2021/12/20 02:18:41;;;;;;;5.25;3.17;;;;;;;3.34;70.77;99961.78;6156299;23;20057;-81
2021/12/20 02:21:06;;;;;;;4.07;2.92;;;;;;;3.36;70.64;99956.69;6183063;23;20017;-81
2021/12/20 02:23:32;;;;;;;4.65;2.90;;;;;;;3.41;70.87;99958.25;6155957;23;20012;-81
2021/12/20 02:25:59;;;;;;;4.82;3.00;;;;;;;3.39;71.19;99950.44;6155958;23;20182;-81
2021/12/20 02:28:26;;;;;;;10.50;6.20;;;;;;;3.49;70.42;99963.34;6156842;23;20049;-82
2021/12/20 02:39:14;;;;;;;5.22;3.30;;;;;;;3.51;71.47;99958.28;6160466;23;20048;-83
2021/12/20 02:41:41;;;;;;;4.55;2.67;;;;;;;3.51;71.56;99961.03;6182265;23;20016;-82
2021/12/20 02:44:11;;;;;;;5.20;3.05;;;;;;;3.53;70.80;99960.63;6156253;23;20076;-82
2021/12/20 02:49:10;;;;;;;7.53;5.00;;;;;;;3.58;70.26;99966.50;6155623;23;20458;-81
2021/12/20 02:51:36;;;;;;;7.78;4.93;;;;;;;3.59;70.34;99962.59;6156301;23;20025;-81
2021/12/20 02:54:04;;;;;;;9.13;6.07;;;;;;;3.58;70.42;99962.97;6155850;23;20016;-81
2021/12/20 02:56:30;;;;;;;8.43;5.35;;;;;;;3.62;70.59;99978.25;6156712;23;20020;-81
2021/12/20 02:58:56;;;;;;;10.70;6.10;;;;;;;3.66;70.33;99973.56;6155953;23;20502;-82
2021/12/20 03:01:22;;;;;;;5.57;4.13;;;;;;;3.69;69.97;99983.75;6130998;23;20021;-81
2021/12/20 03:03:49;;;;;;;4.82;3.38;;;;;;;3.71;69.65;99980.63;6156100;23;20013;-81
2021/12/20 03:06:18;;;;;;;4.15;2.72;;;;;;;3.81;69.54;99990.78;6156154;23;20112;-82
2021/12/20 03:08:47;;;;;;;3.05;1.90;;;;;;;3.89;69.47;99988.81;6182445;23;20044;-81
2021/12/20 03:11:13;;;;;;;3.10;1.92;;;;;;;3.94;69.25;99993.94;6182478;23;20447;-81
2021/12/20 03:13:39;;;;;;;2.85;2.00;;;;;;;3.98;69.11;100000.19;6156065;23;20018;-81
2021/12/20 03:16:05;;;;;;;3.60;2.00;;;;;;;3.96;69.27;100008.06;6155972;23;20005;-81
2021/12/20 03:18:30;;;;;;;3.28;1.92;;;;;;;4.01;69.53;100002.16;6156383;23;20092;-81
2021/12/20 03:20:56;;;;;;;2.67;1.80;;;;;;;4.07;69.19;100017.06;6131218;23;20023;-81
2021/12/20 03:23:22;;;;;;;2.03;1.20;;;;;;;4.37;72.00;100014.63;6131615;23;20036;-81
2021/12/20 03:25:47;;;;;;;2.80;1.67;;;;;;;4.55;73.60;100025.59;6182793;23;20001;-81
2021/12/20 03:28:13;;;;;;;2.22;1.60;;;;;;;4.66;74.00;100029.09;6181983;23;20013;-82
2021/12/20 03:30:38;;;;;;;2.55;1.60;;;;;;;4.65;75.40;100039.28;6182522;23;20200;-82
2021/12/20 03:33:04;;;;;;;2.75;1.70;;;;;;;4.64;77.21;100042.47;6155629;23;20443;-82
2021/12/20 03:35:29;;;;;;;3.25;2.03;;;;;;;4.56;79.09;100046.41;6182591;23;20009;-82
2021/12/20 03:37:55;;;;;;;3.33;1.92;;;;;;;4.51;80.63;100058.56;6182194;23;20584;-82
2021/12/20 03:40:23;;;;;;;3.13;2.25;;;;;;;4.45;82.63;100068.38;6156100;23;20017;-81
2021/12/20 03:42:48;;;;;;;4.18;2.30;;;;;;;4.34;84.13;100064.88;6156101;23;20456;-81
2021/12/20 03:45:15;;;;;;;3.88;2.47;;;;;;;4.22;85.10;100070.75;6182322;23;20013;-81
2021/12/20 03:47:42;;;;;;;4.88;2.85;;;;;;;4.10;86.31;100068.41;6182695;23;20124;-81
2021/12/20 03:50:08;;;;;;;3.65;2.60;;;;;;;3.95;87.82;100055.88;6182124;23;20024;-81
2021/12/20 03:52:34;;;;;;;3.58;2.22;;;;;;;3.86;88.76;100055.47;6181835;23;20032;-81
2021/12/20 03:55:00;;;;;;;4.05;2.80;;;;;;;3.81;90.54;100061.34;6182126;23;20016;-81
2021/12/20 03:57:26;;;;;;;3.78;2.40;;;;;;;3.71;91.08;100057.44;6182601;23;20331;-82
2021/12/20 03:59:53;;;;;;;4.85;2.45;;;;;;;3.70;92.23;100055.84;6182624;23;20019;-81
2021/12/20 04:02:20;;;;;;;3.22;2.20;;;;;;;3.61;92.73;100078.16;6155805;23;20072;-81
2021/12/20 04:04:46;;;;;;;3.47;2.53;;;;;;;3.53;93.80;100081.28;6182037;23;20012;-81
2021/12/20 04:07:12;;;;;;;5.28;2.25;;;;;;;3.42;94.82;100084.00;6155585;23;20056;-81
2021/12/20 04:09:37;;;;;;;4.07;2.30;;;;;;;3.36;95.42;100087.53;6182372;23;20017;-81
2021/12/20 04:12:03;;;;;;;3.20;1.90;;;;;;;3.24;96.27;100088.63;6156112;23;20009;-81
2021/12/20 04:14:29;;;;;;;2.10;1.50;;;;;;;3.20;97.08;100105.06;6183903;23;20440;-81
2021/12/20 04:16:54;;;;;;;3.20;1.95;;;;;;;3.12;98.00;100108.16;6133413;23;20013;-81
2021/12/20 04:19:20;;;;;;;3.08;1.80;;;;;;;3.10;98.39;100100.34;6157987;23;20021;-80
2021/12/20 04:21:45;;;;;;;2.38;1.60;;;;;;;2.98;99.38;100108.13;6183749;23;20096;-81
2021/12/20 04:24:11;;;;;;;3.17;1.92;;;;;;;2.97;99.66;100118.28;6157521;23;20020;-81
2021/12/20 04:26:37;;;;;;;2.90;1.70;;;;;;;2.92;100.00;100126.06;6184450;23;20008;-80
2021/12/20 04:29:02;;;;;;;2.92;2.00;;;;;;;2.81;100.00;100115.06;6184337;23;20013;-80
2021/12/20 04:31:28;;;;;;;3.45;1.92;;;;;;;2.83;100.00;100139.34;6157632;23;20439;-80
2021/12/20 04:33:54;;;;;;;3.83;2.05;;;;;;;2.72;100.00;100111.88;6183716;23;20005;-80
2021/12/20 04:36:19;;;;;;;2.08;1.75;;;;;;;2.71;100.00;100133.00;6184189;23;20040;-80
2021/12/20 04:38:45;;;;;;;3.38;2.20;;;;;;;2.66;100.00;100122.41;6157444;23;20048;-80
2021/12/20 04:41:11;;;;;;;3.83;2.08;;;;;;;2.68;100.00;100124.75;6183629;23;20088;-80
2021/12/20 04:43:39;;;;;;;3.10;2.08;;;;;;;2.65;100.00;100129.06;6183923;23;20092;-81
2021/12/20 04:46:05;;;;;;;3.05;2.25;;;;;;;2.65;100.00;100134.53;6183897;23;20131;-81
2021/12/20 04:48:30;;;;;;;3.28;2.05;;;;;;;2.59;100.00;100136.03;6183655;23;20013;-81
2021/12/20 04:50:56;;;;;;;4.07;2.15;;;;;;;2.62;100.00;100149.00;6183814;23;20005;-81
2021/12/20 04:53:21;;;;;;;3.40;2.10;;;;;;;2.63;100.00;100131.38;6183981;23;20013;-81
2021/12/20 04:55:47;;;;;;;3.40;2.08;;;;;;;2.64;100.00;100149.38;6183591;23;20005;-81
2021/12/20 04:58:13;;;;;;;3.65;2.40;;;;;;;2.60;100.00;100156.78;6183711;23;20024;-81
2021/12/20 05:00:40;;;;;;;3.55;2.40;;;;;;;2.60;100.00;100145.84;6133004;23;20079;-80
2021/12/20 05:03:06;;;;;;;4.18;2.25;;;;;;;2.64;100.00;100154.88;6182970;23;20096;-81
2021/12/20 05:05:32;;;;;;;3.60;2.30;;;;;;;2.64;100.00;100160.34;6132938;23;20048;-81
2021/12/20 05:07:58;;;;;;;3.40;2.30;;;;;;;2.65;100.00;100164.66;6183550;23;20040;-81
2021/12/20 05:10:29;;;;;;;3.20;2.28;;;;;;;2.63;100.00;100163.47;6183692;23;20439;-81
2021/12/20 05:12:57;;;;;;;3.65;2.25;;;;;;;2.65;100.00;100153.72;6158229;23;20351;-81
2021/12/20 05:15:23;;;;;;;2.53;2.10;;;;;;;2.66;100.00;100168.97;6183799;23;20005;-81
2021/12/20 05:17:49;;;;;;;5.25;2.33;;;;;;;2.68;100.00;100174.84;6183512;23;20017;-81
2021/12/20 05:20:15;;;;;;;3.45;2.10;;;;;;;2.64;100.00;100159.56;6156595;23;20004;-81
2021/12/20 05:22:40;;;;;;;3.10;2.20;;;;;;;2.67;100.00;100165.06;6132294;23;20395;-81
2021/12/20 05:25:06;;;;;;;3.83;2.00;;;;;;;2.62;100.00;100156.44;6183212;23;20008;-81
2021/12/20 05:27:32;;;;;;;3.42;2.08;;;;;;;2.68;100.00;100161.16;6183218;23;20068;-81
2021/12/20 05:29:59;;;;;;;3.53;2.15;;;;;;;2.65;100.00;100153.72;6183468;23;20020;-80
2021/12/20 05:32:25;;;;;;;2.88;1.90;;;;;;;2.71;100.00;100165.88;6183006;23;20440;-81
2021/12/20 05:34:50;;;;;;;2.58;1.80;;;;;;;2.65;100.00;100153.72;6157301;23;20120;-81
2021/12/20 05:37:16;;;;;;;4.75;2.33;;;;;;;2.71;100.00;100176.81;6132542;23;20473;-81
2021/12/20 05:39:43;;;;;;;3.25;1.90;;;;;;;2.69;100.00;100179.16;6157401;23;20005;-81
2021/12/20 05:42:08;;;;;;;3.50;2.05;;;;;;;2.71;99.66;100170.59;6156969;23;20013;-81
2021/12/20 05:44:34;;;;;;;4.43;2.08;;;;;;;2.70;99.68;100164.31;6157217;23;20088;-81
2021/12/20 05:46:59;;;;;;;3.50;2.28;;;;;;;2.72;99.54;100175.66;6183024;23;20080;-81
2021/12/20 05:49:25;;;;;;;5.15;3.22;;;;;;;2.68;99.64;100176.81;6156576;23;20020;-81
2021/12/20 05:51:50;;;;;;;2.95;1.83;;;;;;;2.72;98.75;100183.88;6183660;23;20024;-81
2021/12/20 05:54:16;;;;;;;3.33;2.28;;;;;;;2.67;99.37;100180.72;6182548;23;20041;-81
2021/12/20 05:56:42;;;;;;;3.28;2.30;;;;;;;2.68;99.56;100185.81;6183003;23;20324;-81
2021/12/20 05:59:07;;;;;;;3.28;2.38;;;;;;;2.72;99.50;100205.78;6182422;23;20066;-80
2021/12/20 06:01:33;;;;;;;3.70;2.00;;;;;;;2.71;98.96;100209.69;6156842;23;20020;-80
2021/12/20 06:03:58;;;;;;;2.70;1.80;;;;;;;2.68;99.07;100204.97;6182584;23;20024;-80
2021/12/20 06:06:27;;;;;;;6.22;2.30;;;;;;;2.65;99.48;100213.97;6183564;23;20013;-80
2021/12/20 06:08:53;;;;;;;3.42;2.10;;;;;;;2.68;99.55;100229.63;6132758;23;20048;-80
2021/12/20 06:11:18;;;;;;;3.55;2.28;;;;;;;2.62;99.27;100214.72;6156120;23;20017;-80
2021/12/20 06:13:44;;;;;;;3.92;2.20;;;;;;;2.66;99.60;100223.75;6132123;23;20080;-80
2021/12/20 06:16:09;;;;;;;3.97;2.20;;;;;;;2.68;100.00;100221.41;6131997;23;20013;-80
2021/12/20 06:18:35;;;;;;;3.53;2.20;;;;;;;2.68;99.98;100228.84;6182569;23;20013;-80
2021/12/20 06:21:00;;;;;;;3.30;1.98;;;;;;;2.66;100.00;100201.06;6156456;23;20028;-82
2021/12/20 06:23:26;;;;;;;4.80;2.45;;;;;;;2.60;100.00;100219.78;6183124;23;20056;-82
2021/12/20 06:25:52;;;;;;;4.50;2.70;;;;;;;2.59;99.98;100231.91;6183046;23;20016;-80
2021/12/20 06:28:17;;;;;;;3.22;2.25;;;;;;;2.57;99.61;100225.22;6182601;23;20091;-80
2021/12/20 06:30:43;;;;;;;3.28;2.25;;;;;;;2.56;99.52;100221.69;6183464;23;20016;-80
2021/12/20 06:33:08;;;;;;;3.42;2.28;;;;;;;2.60;98.83;100219.00;6131050;23;20047;-80
2021/12/20 06:35:34;;;;;;;4.95;2.40;;;;;;;2.57;97.82;100215.06;6182138;23;20009;-80
2021/12/20 06:38:01;;;;;;;4.20;2.53;;;;;;;2.58;97.77;100232.28;6182072;23;20040;-80
2021/12/20 06:40:28;;;;;;;4.97;2.20;;;;;;;2.65;96.21;100249.56;6182765;23;20009;-81
2021/12/20 06:42:54;;;;;;;4.22;2.10;;;;;;;2.63;96.06;100251.88;6155765;23;20088;-80
2021/12/20 06:45:19;;;;;;;4.63;2.00;;;;;;;2.68;96.33;100257.03;6181639;23;20039;-80
2021/12/20 06:47:45;;;;;;;3.10;1.95;;;;;;;2.69;95.23;100261.34;6156766;23;20432;-80
2021/12/20 06:50:11;;;;;;;3.40;1.80;;;;;;;2.71;94.40;100242.56;6156264;23;20012;-80
2021/12/20 06:52:36;;;;;;;2.65;1.77;;;;;;;2.75;93.22;100259.06;6156537;23;20443;-80
2021/12/20 06:55:02;;;;;;;3.17;1.85;;;;;;;2.77;93.71;100268.44;6156503;23;20339;-79
2021/12/20 06:57:28;;;;;;;3.13;1.98;;;;;;;2.77;93.52;100260.22;6182442;23;20020;-80
2021/12/20 06:59:53;;;;;;;3.90;1.98;;;;;;;2.75;93.16;100270.75;6181464;23;20491;-81
2021/12/20 07:02:19;;;;;;;3.38;1.75;;;;;;;2.72;91.76;100263.31;6181421;23;20027;-82
2021/12/20 07:04:44;;;;;;;4.30;1.95;;;;;;;2.73;92.38;100269.59;6182351;23;20083;-83
2021/12/20 07:07:10;;;;;;;3.20;1.92;;;;;;;2.62;91.30;100266.75;6182695;23;20091;-84
2021/12/20 07:09:35;;;;;;;3.60;2.13;;;;;;;2.58;91.61;100259.69;6181932;23;20040;-84
2021/12/20 07:12:03;;;;;;;2.35;1.65;;;;;;;2.58;89.58;100276.91;6183400;23;20051;-84
2021/12/20 07:14:28;;;;;;;2.85;1.80;;;;;;;2.60;88.72;100280.03;6183113;23;20001;-84
2021/12/20 07:16:54;;;;;;;4.10;2.17;;;;;;;2.63;88.68;100290.22;6132055;23;20017;-82
2021/12/20 07:19:20;;;;;;;3.97;2.13;;;;;;;2.61;88.80;100289.03;6132028;23;20013;-82
2021/12/20 07:21:46;;;;;;;4.32;2.08;;;;;;;2.56;88.85;100283.91;6156948;23;20016;-82
2021/12/20 07:24:11;;;;;;;4.60;2.20;;;;;;;2.63;87.85;100294.94;6131216;23;20455;-81
2021/12/20 07:26:37;;;;;;;5.22;2.20;;;;;;;2.57;88.45;100280.78;6153939;23;20036;-81
2021/12/20 07:29:03;;;;;;;3.28;1.80;;;;;;;2.63;88.76;100295.69;6154131;23;20016;-81
2021/12/20 07:31:29;;;;;;;4.20;1.80;;;;;;;2.66;87.63;100305.13;6154156;23;20036;-82
2021/12/20 07:33:54;;;;;;;3.50;1.88;;;;;;;2.77;88.10;100304.06;6154817;23;20024;-81
2021/12/20 07:36:22;;;;;;;3.20;2.10;;;;;;;2.76;87.95;100299.75;6180832;23;20005;-84
2021/12/20 07:38:48;;;;;;;4.25;2.28;;;;;;;2.98;86.28;100322.63;6180803;23;20084;-84
2021/12/20 07:41:19;;;;;;;3.65;2.28;;;;;;;3.05;86.71;100316.41;6181012;23;20013;-84
2021/12/20 07:43:46;;;;;;;3.40;2.03;;;;;;;3.03;86.53;100316.03;6156414;23;20017;-84
2021/12/20 07:46:12;;;;;;;3.25;2.05;;;;;;;3.06;87.36;100304.31;6183196;23;20001;-84
2021/12/20 07:48:37;;;;;;;5.15;2.20;;;;;;;3.04;87.39;100320.31;6158486;23;20020;-84
2021/12/20 07:51:04;;;;;;;3.25;2.30;;;;;;;3.12;88.00;100325.47;6184989;23;20052;-85
2021/12/20 07:53:30;;;;;;;4.00;2.30;;;;;;;3.21;87.86;100319.69;6184850;23;20006;-84
2021/12/20 07:55:56;;;;;;;5.13;2.60;;;;;;;3.25;87.40;100306.78;6184894;23;20020;-85
2021/12/20 07:58:22;;;;;;;3.00;2.30;;;;;;;3.36;88.10;100326.81;6158167;23;20092;-84
2021/12/20 08:00:47;;;;;;;6.00;2.80;;;;;;;3.48;88.78;100314.78;6184468;23;20062;-84
2021/12/20 08:03:13;;;;;;;3.72;2.50;;;;;;;3.44;87.02;100317.47;6183738;23;20017;-84
2021/12/20 08:05:39;;;;;;;5.65;2.60;;;;;;;3.34;87.21;100326.44;6184650;23;20088;-84
2021/12/20 08:08:05;;;;;;;4.53;2.22;;;;;;;3.40;88.70;100333.13;6184410;23;20017;-85
2021/12/20 08:10:31;;;;;;;3.67;2.40;;;;;;;3.48;88.89;100323.78;6158534;23;20013;-84
2021/12/20 08:12:56;;;;;;;6.93;3.35;;;;;;;3.56;87.95;100335.59;6158021;23;20020;-84
2021/12/20 08:15:22;;;;;;;5.38;3.30;;;;;;;3.52;87.36;100324.59;6158171;23;20009;-84
2021/12/20 08:17:51;;;;;;;4.35;2.83;;;;;;;3.60;87.30;100337.19;6158320;23;20076;-84
2021/12/20 08:20:17;;;;;;;6.45;4.53;;;;;;;3.59;87.69;100332.09;6157913;23;20363;-84
2021/12/20 08:22:42;;;;;;;7.43;3.83;;;;;;;3.64;87.32;100337.97;6184337;23;20012;-85
2021/12/20 08:25:08;;;;;;;4.55;3.10;;;;;;;3.68;86.64;100347.03;6184172;23;20447;-84
2021/12/20 08:27:34;;;;;;;4.47;2.78;;;;;;;3.74;85.96;100337.28;6184440;23;20036;-85
2021/12/20 08:29:59;;;;;;;5.30;3.00;;;;;;;3.71;84.23;100342.75;6157465;23;20427;-84
2021/12/20 08:32:25;;;;;;;5.57;3.40;;;;;;;3.81;84.18;100352.97;6157934;23;20043;-85
2021/12/20 08:34:50;;;;;;;5.80;3.08;;;;;;;3.84;83.58;100343.22;6157914;23;20005;-85
2021/12/20 08:37:16;;;;;;;6.63;3.55;;;;;;;3.83;83.35;100360.84;6133366;23;20076;-85
2021/12/20 08:39:41;;;;;;;5.43;3.17;;;;;;;3.76;82.20;100359.63;6108578;23;20423;-84
2021/12/20 08:42:07;;;;;;;5.85;3.17;;;;;;;3.68;82.29;100360.75;6183634;23;20013;-85
2021/12/20 08:44:33;;;;;;;4.85;2.40;;;;;;;3.69;81.17;100372.50;6157512;23;20017;-86
2021/12/20 08:46:59;;;;;;;5.70;2.50;;;;;;;3.58;81.89;100366.97;6184213;23;20033;-84
2021/12/20 08:49:25;;;;;;;3.85;2.30;;;;;;;3.74;82.27;100375.69;6183716;23;20009;-84
2021/12/20 08:51:51;;;;;;;4.88;2.50;;;;;;;3.74;81.70;100381.19;6133453;23;20009;-80
2021/12/20 08:54:16;;;;;;;5.43;2.33;;;;;;;3.76;80.69;100381.56;6157511;23;20020;-81
2021/12/20 08:56:42;;;;;;;3.80;2.00;;;;;;;3.78;80.85;100396.88;6154224;23;20340;-81
2021/12/20 08:59:08;;;;;;;4.70;2.65;;;;;;;3.74;79.59;100378.44;6182455;23;20013;-81
2021/12/20 09:01:35;;;;;;;4.38;2.25;;;;;;;3.94;79.74;100364.41;6183435;23;20013;-81
2021/12/20 09:04:03;;;;;;;3.88;2.25;;;;;;;4.04;79.38;100374.69;6157036;23;20525;-81
2021/12/20 09:06:28;;;;;;;4.28;1.85;;;;;;;4.08;78.16;100378.22;6157299;23;20077;-81
2021/12/20 09:08:55;;;;;;;3.80;2.05;;;;;;;4.06;78.33;100366.84;6132356;23;20032;-85
2021/12/20 09:11:26;;;;;;;3.20;2.10;;;;;;;4.18;78.63;100382.97;6132540;23;20008;-85
2021/12/20 09:13:52;;;;;;;4.18;2.10;;;;;;;4.10;77.21;100376.66;6157632;23;20096;-85
2021/12/20 09:16:18;;;;;;;4.05;2.20;;;;;;;4.08;78.24;100380.97;6183578;23;20072;-85
2021/12/20 09:18:43;;;;;;;4.80;2.50;;;;;;;4.17;77.84;100382.19;6183500;23;20431;-85
2021/12/20 09:21:10;;;;;;;4.50;2.33;;;;;;;4.13;78.36;100366.84;6183651;23;20415;-85
2021/12/20 09:23:37;;;;;;;3.65;2.10;;;;;;;4.21;77.31;100376.69;6157808;23;20024;-85
2021/12/20 09:26:03;;;;;;;4.45;2.00;;;;;;;4.08;75.90;100375.47;6183916;23;20013;-85
2021/12/20 09:28:29;;;;;;;4.32;2.20;;;;;;;4.17;76.03;100371.19;6182472;23;20414;-85
2021/12/20 09:30:55;;;;;;;4.10;1.70;;;;;;;4.16;74.80;100386.13;6183302;23;20009;-81
2021/12/20 09:33:21;;;;;;;4.97;2.55;;;;;;;4.08;75.11;100373.53;6156906;23;20079;-81
2021/12/20 09:35:46;;;;;;;5.18;2.13;;;;;;;4.07;75.28;100382.13;6183652;23;20454;-81
2021/12/20 09:38:16;;;;;;;4.45;2.45;;;;;;;4.00;74.70;100382.91;6183271;23;20478;-81
2021/12/20 09:41:01;;;;;;;4.13;2.20;;;;;;;4.09;74.10;100380.56;6157530;23;20020;-81
2021/12/20 09:43:27;;;;;;;4.00;2.00;;;;;;;4.17;73.44;100387.66;6182315;23;20470;-81
2021/12/20 09:45:55;;;;;;;4.13;2.20;;;;;;;4.16;73.86;100377.88;6157647;23;20005;-82
2021/12/20 09:48:20;;;;;;;3.88;1.83;;;;;;;4.23;73.60;100371.63;6183382;23;20021;-85
2021/12/20 09:50:46;;;;;;;4.18;2.10;;;;;;;4.32;71.78;100382.25;6157393;23;20391;-81
2021/12/20 09:53:14;;;;;;;3.92;1.92;;;;;;;4.35;72.53;100376.78;6132439;23;20013;-81
2021/12/20 09:55:44;;;;;;;3.92;1.92;;;;;;;4.42;72.49;100365.81;6108560;23;20027;-81
2021/12/20 09:58:10;;;;;;;4.35;1.90;;;;;;;4.43;71.76;100374.84;6152887;23;20040;-81
2021/12/20 10:00:35;;;;;;;4.97;2.05;;;;;;;4.50;72.29;100375.66;6130267;23;20097;-81
2021/12/20 10:03:01;;;;;;;4.78;2.00;;;;;;;4.41;71.58;100369.72;6155518;23;20024;-81
2021/12/20 10:05:27;;;;;;;3.92;2.25;;;;;;;4.34;71.69;100379.91;6181215;23;20013;-81
2021/12/20 10:07:56;;;;;;;5.10;2.40;;;;;;;4.23;72.04;100368.88;6182328;23;20013;-85
2021/12/20 10:10:49;;;;;;;3.75;2.28;;;;;;;4.49;72.67;100371.31;6156168;23;20013;-85
2021/12/20 10:13:26;;;;;;;3.83;1.77;;;;;;;4.69;70.79;100361.56;6154956;23;20055;-85
2021/12/20 10:15:53;;;;;;;3.83;2.05;;;;;;;4.62;69.88;100361.53;6181597;23;20013;-84
2021/12/20 10:18:19;;;;;;;4.13;2.13;;;;;;;4.59;70.92;100348.59;6155752;23;20100;-85
2021/12/20 10:20:53;;;;;;;5.47;2.10;;;;;;;4.85;70.03;100360.44;6130643;23;20405;-84
2021/12/20 10:23:23;;;;;;;4.50;2.22;;;;;;;5.02;69.29;100354.16;6156667;23;20438;-85
2021/12/20 10:25:52;;;;;;;2.90;1.90;;;;;;;5.19;66.56;100347.88;6156309;23;20025;-85
2021/12/20 10:28:34;;;;;;;3.35;2.10;;;;;;;5.38;67.45;100347.47;6156791;23;20033;-81
2021/12/20 10:31:09;;;;;;;5.95;1.95;;;;;;;5.48;65.61;100352.19;6182903;23;20439;-81
2021/12/20 10:33:35;;;;;;;4.68;2.03;;;;;;;5.60;65.27;100362.78;6156644;23;20020;-81
2021/12/20 10:36:07;;;;;;;3.38;1.73;;;;;;;5.62;62.04;100349.41;6183308;23;20037;-81
2021/12/20 10:38:43;;;;;;;3.47;1.58;;;;;;;5.77;60.52;100371.41;6182560;23;20024;-81
2021/12/20 10:41:12;;;;;;;5.13;1.77;;;;;;;5.74;60.44;100363.94;6182545;23;20378;-81
2021/12/20 10:43:50;;;;;;;3.58;1.45;;;;;;;5.55;61.12;100360.44;6156285;23;20090;-81
2021/12/20 10:46:18;;;;;;;3.40;1.58;;;;;;;5.61;61.44;100371.81;6182621;23;20347;-85
2021/12/20 10:48:50;;;;;;;2.28;1.25;;;;;;;5.50;61.50;100368.31;6156717;23;20071;-81
2021/12/20 10:51:18;;;;;;;4.47;1.90;;;;;;;5.40;62.70;100369.88;6132250;23;20321;-82
2021/12/20 10:53:56;;;;;;;5.78;1.70;;;;;;;5.38;63.82;100352.97;6183044;23;20060;-82
2021/12/20 10:56:22;;;;;;;3.58;1.90;;;;;;;5.45;63.64;100366.75;6157490;23;20084;-81
2021/12/20 10:58:48;;;;;;;5.70;2.05;;;;;;;5.49;63.97;100362.03;6156727;23;20040;-81
2021/12/20 11:04:16;;;;;;;3.10;1.55;;;;;;;5.62;61.97;100365.91;6157843;23;20088;-85
2021/12/20 11:07:01;;;;;;;3.92;1.50;;;;;;;5.57;63.11;100349.81;6183393;23;20384;-85
2021/12/20 11:09:35;;;;;;;3.80;2.00;;;;;;;5.72;62.64;100353.31;6159814;23;20012;-85
2021/12/20 11:12:04;;;;;;;4.95;1.85;;;;;;;5.60;62.19;100340.78;6156415;23;20087;-84
2021/12/20 11:14:32;;;;;;;2.92;1.80;;;;;;;5.60;62.03;100345.47;6156229;23;20016;-85
2021/12/20 11:17:00;;;;;;;3.13;1.80;;;;;;;5.53;62.11;100331.75;6156781;23;20013;-85
2021/12/20 11:19:33;;;;;;;4.15;1.90;;;;;;;5.45;62.08;100346.69;6182659;23;20001;-85
2021/12/20 11:22:18;;;;;;;5.05;1.55;;;;;;;5.32;62.53;100349.06;6156654;23;20021;-86
2021/12/20 11:24:51;;;;;;;4.40;1.77;;;;;;;5.34;62.79;100354.94;6132169;23;20363;-85
2021/12/20 11:27:30;;;;;;;4.83;1.90;;;;;;;5.52;63.53;100350.22;6155893;23;20021;-87
2021/12/20 11:29:57;;;;;;;3.67;1.70;;;;;;;5.71;63.32;100340.75;6156610;23;20443;-87
2021/12/20 11:32:24;;;;;;;6.10;1.85;;;;;;;5.70;62.53;100352.16;6131824;23;20020;-87
2021/12/20 11:34:49;;;;;;;6.15;2.20;;;;;;;5.81;62.59;100350.16;6129535;23;20021;-86
2021/12/20 11:37:18;;;;;;;4.18;1.67;;;;;;;5.84;62.10;100352.13;6153891;23;20533;-86
2021/12/20 11:39:45;;;;;;;5.68;2.40;;;;;;;5.86;61.25;100358.03;6182177;23;20017;-87
2021/12/20 11:42:12;;;;;;;4.00;1.80;;;;;;;5.78;60.89;100360.00;6155805;23;20549;-86
2021/12/20 11:44:39;;;;;;;3.90;1.90;;;;;;;5.82;61.15;100352.53;6182172;23;20403;-87
2021/12/20 11:47:19;;;;;;;5.43;1.83;;;;;;;5.73;60.29;100346.66;6131677;23;20349;-87
2021/12/20 11:49:44;;;;;;;5.72;1.75;;;;;;;5.82;61.93;100360.00;6181928;23;20024;-87
2021/12/20 11:52:18;;;;;;;3.28;1.60;;;;;;;5.96;61.75;100359.97;6155234;23;20021;-87
2021/12/20 11:54:50;;;;;;;3.33;1.88;;;;;;;6.01;62.05;100343.84;6181789;23;20439;-86